createdAt,value
2022-11-07T00:00:00.098Z,3.65
2022-11-07T00:02:26.550Z,3.72
2022-11-07T00:04:53.123Z,3.92
2022-11-07T00:07:19.598Z,3.70
2022-11-07T00:09:46.108Z,4.07
2022-11-07T00:12:12.578Z,4.20
2022-11-07T00:14:39.058Z,3.70
2022-11-07T00:17:05.599Z,3.63
2022-11-07T00:19:32.292Z,3.13
2022-11-07T00:21:58.822Z,3.63
2022-11-07T00:24:25.490Z,3.63
2022-11-07T00:26:52.171Z,3.58
2022-11-07T00:29:19.561Z,4.10
2022-11-07T00:31:46.505Z,3.72
2022-11-07T00:34:13.068Z,3.67
2022-11-07T00:36:39.583Z,4.15
2022-11-07T00:39:06.688Z,3.95
2022-11-07T00:41:33.232Z,3.58
2022-11-07T00:43:59.842Z,3.33
2022-11-07T00:46:26.413Z,3.50
2022-11-07T00:48:52.892Z,3.47
2022-11-07T00:51:21.129Z,3.50
2022-11-07T00:53:47.673Z,3.25
2022-11-07T00:56:15.191Z,3.53
2022-11-07T00:58:42.775Z,3.40
2022-11-07T01:01:10.949Z,3.33
2022-11-07T01:03:55.879Z,3.40
2022-11-07T01:06:22.770Z,3.55
2022-11-07T01:08:49.272Z,3.50
2022-11-07T01:11:15.801Z,3.00
2022-11-07T01:13:42.361Z,3.70
2022-11-07T01:16:10.124Z,3.55
2022-11-07T01:18:36.671Z,3.33
2022-11-07T01:21:07.119Z,3.10
2022-11-07T01:23:36.623Z,3.08
2022-11-07T01:26:06.713Z,3.33
2022-11-07T01:28:33.451Z,3.00
2022-11-07T01:31:02.960Z,3.22
2022-11-07T01:33:29.803Z,3.83
2022-11-07T01:36:04.944Z,3.17
2022-11-07T01:38:32.422Z,2.88
2022-11-07T01:41:17.383Z,3.05
2022-11-07T01:43:58.331Z,3.08
2022-11-07T01:46:26.732Z,2.70
2022-11-07T01:48:56.631Z,3.17
2022-11-07T01:51:23.502Z,3.25
2022-11-07T01:53:50.484Z,2.80
2022-11-07T01:56:18.192Z,3.22
2022-11-07T01:58:47.161Z,3.33
2022-11-07T02:01:14.415Z,3.10
2022-11-07T02:03:41.143Z,2.35
2022-11-07T02:06:10.642Z,2.78
2022-11-07T02:08:39.113Z,3.03
2022-11-07T02:11:06.082Z,2.85
2022-11-07T02:13:32.705Z,2.92
2022-11-07T02:15:59.992Z,3.10
2022-11-07T02:18:27.412Z,2.90
2022-11-07T02:20:55.659Z,3.00
2022-11-07T02:23:30.348Z,2.90
2022-11-07T02:25:56.866Z,2.75
2022-11-07T02:28:24.072Z,3.10
2022-11-07T02:30:50.600Z,2.50
2022-11-07T02:33:20.833Z,2.88
2022-11-07T02:35:48.799Z,2.72
2022-11-07T02:38:22.992Z,2.92
2022-11-07T02:40:51.241Z,3.00
2022-11-07T02:43:19.651Z,2.60
2022-11-07T02:45:48.051Z,2.90
2022-11-07T02:48:14.613Z,2.70
2022-11-07T02:50:41.511Z,2.85
2022-11-07T02:53:08.008Z,2.70
2022-11-07T02:55:34.551Z,2.90
2022-11-07T02:58:01.072Z,2.25
2022-11-07T03:00:27.611Z,2.70
2022-11-07T03:02:54.488Z,2.47
2022-11-07T03:05:21.419Z,2.90
2022-11-07T03:07:48.641Z,2.70
2022-11-07T03:10:15.831Z,2.97
2022-11-07T03:12:42.524Z,2.35
2022-11-07T03:15:09.766Z,2.33
2022-11-07T03:17:36.407Z,2.78
2022-11-07T03:20:03.016Z,2.33
2022-11-07T03:22:29.523Z,2.67
2022-11-07T03:24:55.961Z,2.65
2022-11-07T03:27:22.502Z,2.22
2022-11-07T03:29:49.443Z,2.60
2022-11-07T03:32:15.992Z,2.63
2022-11-07T03:34:42.453Z,2.42
2022-11-07T03:37:09.093Z,2.53
2022-11-07T03:39:35.571Z,2.40
2022-11-07T03:42:02.109Z,2.35
2022-11-07T03:44:28.622Z,2.38
2022-11-07T03:46:55.603Z,2.35
2022-11-07T03:49:22.142Z,2.20
2022-11-07T03:51:48.632Z,2.40
2022-11-07T03:54:15.273Z,2.63
2022-11-07T03:56:41.771Z,2.50
2022-11-07T03:59:08.270Z,2.03
2022-11-07T04:01:35.058Z,2.30
2022-11-07T04:04:01.782Z,2.10
2022-11-07T04:06:28.235Z,1.60
2022-11-07T04:08:54.660Z,2.20
2022-11-07T04:11:39.649Z,2.28
2022-11-07T04:14:24.940Z,1.90
2022-11-07T04:17:09.748Z,2.08
2022-11-07T04:19:36.289Z,2.47
2022-11-07T04:22:02.742Z,2.20
2022-11-07T04:24:29.223Z,1.95
2022-11-07T04:27:14.337Z,2.30
2022-11-07T04:29:40.847Z,2.03
2022-11-07T04:32:07.370Z,2.30
2022-11-07T04:34:33.853Z,2.10
2022-11-07T04:37:00.276Z,1.92
2022-11-07T04:39:26.891Z,2.25
2022-11-07T04:41:53.347Z,2.00
2022-11-07T04:44:19.939Z,2.10
2022-11-07T04:46:46.402Z,2.30
2022-11-07T04:49:15.246Z,2.17
2022-11-07T04:51:42.768Z,2.00
2022-11-07T04:54:13.648Z,1.92
2022-11-07T04:56:40.478Z,2.08
2022-11-07T04:59:07.097Z,2.00
2022-11-07T05:01:33.799Z,1.80
2022-11-07T05:04:00.359Z,1.98
2022-11-07T05:06:27.043Z,1.90
2022-11-07T05:08:53.606Z,1.83
2022-11-07T05:11:20.076Z,1.83
2022-11-07T05:13:46.623Z,1.90
2022-11-07T05:16:15.184Z,1.88
2022-11-07T05:18:41.717Z,1.90
2022-11-07T05:21:08.369Z,1.80
2022-11-07T05:23:34.873Z,1.73
2022-11-07T05:26:01.415Z,1.60
2022-11-07T05:28:37.069Z,2.00
2022-11-07T05:31:06.376Z,1.98
2022-11-07T05:33:32.871Z,1.83
2022-11-07T05:36:08.422Z,1.88
2022-11-07T05:38:34.816Z,1.92
2022-11-07T05:41:04.502Z,1.73
2022-11-07T05:43:31.061Z,1.98
2022-11-07T05:46:01.227Z,1.75
2022-11-07T05:48:27.745Z,1.90
2022-11-07T05:50:54.287Z,1.45
2022-11-07T05:53:21.558Z,1.77
2022-11-07T05:55:48.160Z,1.90
2022-11-07T05:58:14.638Z,1.67
2022-11-07T06:00:41.188Z,1.70
2022-11-07T06:03:08.237Z,1.90
2022-11-07T06:05:34.783Z,1.60
2022-11-07T06:08:01.248Z,1.50
2022-11-07T06:10:27.783Z,2.10
2022-11-07T06:13:00.809Z,2.13
2022-11-07T06:15:28.041Z,1.85
2022-11-07T06:17:54.857Z,1.80
2022-11-07T06:20:22.450Z,2.05
2022-11-07T06:22:48.987Z,2.15
2022-11-07T06:25:15.569Z,1.98
2022-11-07T06:27:41.988Z,2.20
2022-11-07T06:30:08.723Z,2.00
2022-11-07T06:32:35.233Z,1.95
2022-11-07T06:35:01.734Z,2.60
2022-11-07T06:37:28.361Z,2.42
2022-11-07T06:39:54.917Z,2.38
2022-11-07T06:42:21.515Z,2.53
2022-11-07T06:44:48.128Z,2.38
2022-11-07T06:47:14.556Z,2.45
2022-11-07T06:49:41.081Z,2.50
2022-11-07T06:52:07.561Z,2.65
2022-11-07T06:54:34.102Z,2.45
2022-11-07T06:57:00.530Z,3.10
2022-11-07T06:59:26.997Z,2.60
2022-11-07T07:01:53.501Z,2.30
2022-11-07T07:04:20.074Z,2.50
2022-11-07T07:06:46.498Z,2.90
2022-11-07T07:09:13.007Z,2.45
2022-11-07T07:11:39.695Z,3.05
2022-11-07T07:14:11.230Z,2.65
2022-11-07T07:16:38.213Z,2.92
2022-11-07T07:19:05.052Z,2.65
2022-11-07T07:21:31.572Z,2.97
2022-11-07T07:23:58.016Z,2.95
2022-11-07T07:26:24.546Z,2.58
2022-11-07T07:28:50.997Z,2.63
2022-11-07T07:31:17.516Z,2.58
2022-11-07T07:33:44.746Z,2.70
2022-11-07T07:36:15.277Z,2.80
2022-11-07T07:38:44.505Z,2.80
2022-11-07T07:41:10.982Z,2.95
2022-11-07T07:43:37.512Z,2.97
2022-11-07T07:46:05.503Z,3.10
2022-11-07T07:48:32.002Z,3.17
2022-11-07T07:50:58.800Z,3.00
2022-11-07T07:53:25.330Z,3.30
2022-11-07T07:55:56.898Z,2.83
2022-11-07T07:58:23.468Z,3.30
2022-11-07T08:00:51.662Z,2.70
2022-11-07T08:03:18.675Z,3.00
2022-11-07T08:05:45.489Z,2.83
2022-11-07T08:08:11.937Z,3.22
2022-11-07T08:10:43.109Z,3.70
2022-11-07T08:13:09.900Z,2.60
2022-11-07T08:15:36.389Z,3.28
2022-11-07T08:18:03.493Z,3.05
2022-11-07T08:20:30.105Z,2.58
2022-11-07T08:23:09.859Z,3.22
2022-11-07T08:25:41.385Z,3.10
2022-11-07T08:28:08.703Z,2.50
2022-11-07T08:30:35.549Z,3.30
2022-11-07T08:33:03.411Z,2.88
2022-11-07T08:35:30.638Z,2.83
2022-11-07T08:37:57.634Z,3.10
2022-11-07T08:40:24.128Z,3.10
2022-11-07T08:42:50.763Z,3.60
2022-11-07T08:45:17.358Z,4.32
2022-11-07T08:47:43.868Z,5.00
2022-11-07T08:50:10.437Z,5.35
2022-11-07T08:52:36.924Z,5.82
2022-11-07T08:55:04.130Z,4.50
2022-11-07T08:57:30.644Z,4.03
2022-11-07T08:59:57.144Z,4.13
2022-11-07T09:05:10.114Z,7.75
2022-11-07T09:07:38.134Z,3.55
2022-11-07T09:10:04.724Z,3.28
2022-11-07T09:12:31.175Z,3.50
2022-11-07T09:14:57.691Z,3.67
2022-11-07T09:17:24.122Z,2.92
2022-11-07T09:19:50.570Z,3.47
2022-11-07T09:22:17.109Z,4.55
2022-11-07T09:24:43.859Z,5.38
2022-11-07T09:27:10.334Z,3.40
2022-11-07T09:29:36.827Z,2.90
2022-11-07T09:32:23.403Z,3.20
2022-11-07T09:34:55.975Z,2.90
2022-11-07T09:37:24.787Z,2.90
2022-11-07T09:39:51.316Z,2.85
2022-11-07T09:42:17.786Z,2.63
2022-11-07T09:44:50.277Z,2.65
2022-11-07T09:47:19.273Z,2.80
2022-11-07T09:49:48.824Z,2.65
2022-11-07T09:52:18.105Z,2.88
2022-11-07T09:54:51.668Z,3.17
2022-11-07T09:57:18.926Z,2.08
2022-11-07T10:00:00.377Z,2.85
2022-11-07T10:02:30.226Z,2.53
2022-11-07T10:04:58.535Z,2.30
2022-11-07T10:07:25.016Z,2.45
2022-11-07T10:10:01.169Z,2.65
2022-11-07T10:12:43.200Z,2.42
2022-11-07T10:15:11.804Z,2.65
2022-11-07T10:17:38.296Z,2.67
2022-11-07T10:20:25.372Z,2.30
2022-11-07T10:22:54.888Z,2.70
2022-11-07T10:25:27.785Z,3.05
2022-11-07T10:28:01.605Z,2.45
2022-11-07T10:30:28.389Z,2.25
2022-11-07T10:33:13.971Z,2.53
2022-11-07T10:35:45.554Z,2.72
2022-11-07T10:38:21.845Z,2.33
2022-11-07T10:40:50.175Z,2.58
2022-11-07T10:43:20.725Z,2.58
2022-11-07T10:45:47.404Z,2.58
2022-11-07T10:48:14.704Z,2.70
2022-11-07T10:50:50.375Z,2.60
2022-11-07T10:53:18.935Z,2.63
2022-11-07T10:55:47.611Z,2.35
2022-11-07T10:58:40.267Z,2.60
2022-11-07T11:01:09.553Z,2.30
2022-11-07T11:03:45.482Z,2.33
2022-11-07T11:06:15.085Z,2.55
2022-11-07T11:08:41.536Z,2.60
2022-11-07T11:11:24.057Z,2.15
2022-11-07T11:14:00.728Z,2.60
2022-11-07T11:16:28.216Z,2.45
2022-11-07T11:18:56.134Z,1.45
2022-11-07T11:21:22.807Z,2.67
2022-11-07T11:23:49.320Z,2.75
2022-11-07T11:26:20.575Z,5.53
2022-11-07T11:28:49.986Z,3.40
2022-11-07T11:31:33.118Z,3.50
2022-11-07T11:34:16.977Z,5.10
2022-11-07T11:36:47.040Z,13.25
2022-11-07T11:39:26.316Z,104.82
2022-11-07T11:41:59.336Z,35.85
2022-11-07T11:44:39.767Z,24.17
2022-11-07T11:47:14.324Z,17.85
2022-11-07T11:49:45.397Z,15.88
2022-11-07T11:52:16.945Z,14.82
2022-11-07T11:54:44.035Z,12.95
2022-11-07T11:57:13.216Z,12.73
2022-11-07T11:59:57.846Z,11.63
2022-11-07T12:02:41.294Z,11.25
2022-11-07T12:05:26.866Z,10.18
2022-11-07T12:08:00.480Z,9.68
2022-11-07T12:10:56.255Z,8.90
2022-11-07T12:13:37.585Z,8.20
2022-11-07T12:16:26.676Z,7.55
2022-11-07T12:19:01.549Z,7.32
2022-11-07T12:21:32.812Z,6.95
2022-11-07T12:24:10.126Z,6.60
2022-11-07T12:26:41.510Z,5.70
2022-11-07T12:29:07.917Z,5.93
2022-11-07T12:32:03.835Z,5.45
2022-11-07T12:34:48.720Z,5.72
2022-11-07T12:37:27.864Z,4.60
2022-11-07T12:40:17.554Z,4.93
2022-11-07T12:43:00.713Z,4.53
2022-11-07T12:45:30.014Z,4.40
2022-11-07T12:47:59.817Z,4.30
2022-11-07T12:50:32.423Z,4.18
2022-11-07T12:53:19.598Z,4.18
2022-11-07T12:56:02.832Z,3.55
2022-11-07T12:58:31.383Z,3.28
2022-11-07T13:00:58.243Z,2.83
2022-11-07T13:03:24.773Z,3.33
2022-11-07T13:06:03.183Z,3.42
2022-11-07T13:08:45.923Z,2.88
2022-11-07T13:11:22.625Z,3.10
2022-11-07T13:14:07.511Z,3.00
2022-11-07T13:16:34.851Z,2.60
2022-11-07T13:19:11.181Z,2.75
2022-11-07T13:21:41.863Z,2.30
2022-11-07T13:24:08.451Z,2.45
2022-11-07T13:26:50.116Z,2.47
2022-11-07T13:29:22.792Z,2.25
2022-11-07T13:31:53.481Z,1.92
2022-11-07T13:34:19.997Z,2.03
2022-11-07T13:36:48.283Z,2.00
2022-11-07T13:39:15.741Z,2.03
2022-11-07T13:41:44.585Z,2.15
2022-11-07T13:44:17.626Z,1.95
2022-11-07T13:46:44.184Z,1.90
2022-11-07T13:49:15.863Z,1.40
2022-11-07T13:51:44.376Z,1.65
2022-11-07T13:54:28.986Z,1.73
2022-11-07T13:57:06.259Z,1.70
2022-11-07T13:59:36.683Z,1.80
2022-11-07T14:02:04.102Z,1.77
2022-11-07T14:04:32.098Z,1.40
2022-11-07T14:07:03.301Z,1.70
2022-11-07T14:09:31.842Z,1.75
2022-11-07T14:11:58.419Z,1.42
2022-11-07T14:14:26.043Z,1.40
2022-11-07T14:16:56.258Z,1.48
2022-11-07T14:19:27.305Z,1.30
2022-11-07T14:21:55.135Z,1.42
2022-11-07T14:24:34.499Z,1.40
2022-11-07T14:27:27.731Z,1.77
2022-11-07T14:29:55.129Z,1.52
2022-11-07T14:32:21.583Z,1.23
2022-11-07T14:34:48.974Z,1.30
2022-11-07T14:37:17.325Z,1.33
2022-11-07T14:39:43.977Z,1.17
2022-11-07T14:42:13.786Z,1.38
2022-11-07T14:44:53.861Z,1.55
2022-11-07T14:47:27.035Z,1.15
2022-11-07T14:49:54.327Z,1.30
2022-11-07T14:52:23.188Z,1.40
2022-11-07T14:54:50.945Z,1.27
2022-11-07T14:57:18.195Z,1.20
2022-11-07T14:59:44.759Z,1.08
2022-11-07T15:02:11.320Z,1.27
2022-11-07T15:04:44.215Z,1.20
2022-11-07T15:07:10.667Z,1.20
2022-11-07T15:09:37.355Z,1.50
2022-11-07T15:12:07.354Z,1.45
2022-11-07T15:14:35.181Z,1.92
2022-11-07T15:17:04.379Z,1.83
2022-11-07T15:19:32.573Z,1.85
2022-11-07T15:22:01.052Z,1.73
2022-11-07T15:24:41.419Z,1.40
2022-11-07T15:27:14.024Z,1.45
2022-11-07T15:29:48.929Z,1.65
2022-11-07T15:32:20.354Z,1.70
2022-11-07T15:35:22.947Z,1.40
2022-11-07T15:37:35.396Z,1.65
2022-11-07T15:40:01.854Z,2.08
2022-11-07T15:42:28.436Z,1.58
2022-11-07T15:44:54.947Z,1.83
2022-11-07T15:47:22.158Z,1.92
2022-11-07T15:49:49.027Z,1.65
2022-11-07T15:52:15.614Z,1.70
2022-11-07T15:54:42.099Z,1.70
2022-11-07T15:57:08.987Z,5.57
2022-11-07T15:59:36.769Z,6.65
2022-11-07T16:02:03.785Z,21.00
2022-11-07T16:04:30.594Z,40.35
2022-11-07T16:06:57.177Z,87.57
2022-11-07T16:09:24.203Z,86.30
2022-11-07T16:11:50.735Z,38.70
2022-11-07T16:17:05.062Z,17.13
2022-11-07T16:19:31.594Z,14.65
2022-11-07T16:21:58.084Z,11.07
2022-11-07T16:24:24.559Z,9.20
2022-11-07T16:26:51.438Z,9.10
2022-11-07T16:29:17.928Z,8.68
2022-11-07T16:31:44.388Z,7.80
2022-11-07T16:34:11.111Z,7.70
2022-11-07T16:36:39.390Z,7.13
2022-11-07T16:39:09.139Z,6.65
2022-11-07T16:41:36.219Z,6.47
2022-11-07T16:44:02.787Z,6.75
2022-11-07T16:46:34.319Z,5.63
2022-11-07T16:49:05.388Z,5.32
2022-11-07T16:51:33.070Z,5.80
2022-11-07T16:53:59.497Z,5.13
2022-11-07T16:56:28.980Z,4.38
2022-11-07T16:58:55.580Z,4.10
2022-11-07T17:01:23.361Z,4.28
2022-11-07T17:03:50.028Z,4.20
2022-11-07T17:06:18.708Z,4.20
2022-11-07T17:08:45.498Z,3.90
2022-11-07T17:11:16.313Z,3.92
2022-11-07T17:13:43.128Z,3.22
2022-11-07T17:16:20.888Z,3.35
2022-11-07T17:18:49.026Z,3.20
2022-11-07T17:21:24.789Z,3.50
2022-11-07T17:23:52.102Z,3.10
2022-11-07T17:26:20.685Z,3.13
2022-11-07T17:28:47.971Z,3.20
2022-11-07T17:31:14.591Z,2.92
2022-11-07T17:33:41.161Z,3.08
2022-11-07T17:36:16.251Z,2.85
2022-11-07T17:38:42.813Z,2.67
2022-11-07T17:41:19.870Z,2.75
2022-11-07T17:43:46.971Z,2.60
2022-11-07T17:46:18.030Z,2.70
2022-11-07T17:48:47.296Z,2.17
2022-11-07T17:51:14.120Z,2.33
2022-11-07T17:53:40.731Z,2.38
2022-11-07T17:56:07.381Z,2.30
2022-11-07T17:58:33.816Z,2.40
2022-11-07T18:01:00.373Z,2.20
2022-11-07T18:03:27.076Z,2.60
2022-11-07T18:05:53.534Z,2.60
2022-11-07T18:08:38.397Z,2.70
2022-11-07T18:11:06.864Z,2.38
2022-11-07T18:13:33.383Z,2.40
2022-11-07T18:16:00.100Z,2.50
2022-11-07T18:18:27.164Z,2.38
2022-11-07T18:20:53.645Z,2.25
2022-11-07T18:23:20.080Z,2.33
2022-11-07T18:25:46.632Z,1.60
2022-11-07T18:28:13.199Z,2.10
2022-11-07T18:30:39.718Z,1.98
2022-11-07T18:33:06.299Z,2.03
2022-11-07T18:35:32.748Z,2.28
2022-11-07T18:37:59.193Z,2.13
2022-11-07T18:40:25.687Z,2.50
2022-11-07T18:42:52.164Z,2.17
2022-11-07T18:45:18.734Z,2.45
2022-11-07T18:47:45.229Z,2.28
2022-11-07T18:50:11.834Z,2.42
2022-11-07T18:52:38.332Z,2.10
2022-11-07T18:55:04.904Z,2.85
2022-11-07T18:57:31.378Z,2.33
2022-11-07T18:59:57.819Z,2.25
2022-11-07T19:02:24.388Z,2.22
2022-11-07T19:04:51.499Z,2.28
2022-11-07T19:07:18.035Z,2.15
2022-11-07T19:09:44.657Z,2.20
2022-11-07T19:12:11.105Z,2.05
2022-11-07T19:14:37.668Z,2.30
2022-11-07T19:17:04.895Z,2.42
2022-11-07T19:19:32.199Z,2.17
2022-11-07T19:21:58.676Z,2.00
2022-11-07T19:24:25.311Z,2.58
2022-11-07T19:26:51.786Z,2.30
2022-11-07T19:29:18.360Z,2.40
2022-11-07T19:31:44.945Z,2.17
2022-11-07T19:34:11.483Z,2.55
2022-11-07T19:36:38.114Z,3.20
2022-11-07T19:39:04.917Z,10.70
2022-11-07T19:41:31.470Z,4.65
2022-11-07T19:44:01.750Z,3.47
2022-11-07T19:46:28.286Z,3.10
2022-11-07T19:48:55.126Z,2.50
2022-11-07T19:51:23.090Z,2.65
2022-11-07T19:53:57.309Z,2.65
2022-11-07T19:56:24.972Z,2.53
2022-11-07T19:58:51.495Z,2.58
2022-11-07T20:01:19.416Z,2.72
2022-11-07T20:03:50.315Z,2.58
2022-11-07T20:06:17.912Z,2.53
2022-11-07T20:08:46.224Z,2.28
2022-11-07T20:11:14.604Z,2.50
2022-11-07T20:13:41.382Z,2.78
2022-11-07T20:16:09.236Z,3.08
2022-11-07T20:18:40.103Z,3.00
2022-11-07T20:21:12.999Z,2.50
2022-11-07T20:23:39.989Z,2.75
2022-11-07T20:26:07.937Z,2.75
2022-11-07T20:28:34.958Z,2.60
2022-11-07T20:31:01.507Z,2.95
2022-11-07T20:33:27.987Z,3.15
2022-11-07T20:36:01.371Z,2.60
2022-11-07T20:38:28.918Z,2.55
2022-11-07T20:40:59.911Z,2.58
2022-11-07T20:43:27.152Z,2.58
2022-11-07T20:46:03.651Z,2.67
2022-11-07T20:48:35.212Z,2.53
2022-11-07T20:51:08.391Z,2.67
2022-11-07T20:53:35.568Z,2.90
2022-11-07T20:56:07.763Z,2.70
2022-11-07T20:58:36.350Z,2.50
2022-11-07T21:01:07.849Z,2.70
2022-11-07T21:03:35.801Z,3.53
2022-11-07T21:06:04.222Z,2.63
2022-11-07T21:08:36.954Z,2.72
2022-11-07T21:11:03.805Z,3.10
2022-11-07T21:13:30.307Z,3.03
2022-11-07T21:15:57.140Z,2.88
2022-11-07T21:18:24.522Z,2.83
2022-11-07T21:20:51.060Z,2.92
2022-11-07T21:23:18.433Z,2.63
2022-11-07T21:25:46.834Z,2.50
2022-11-07T21:28:17.901Z,2.63
2022-11-07T21:30:45.360Z,1.88
2022-11-07T21:33:12.295Z,2.47
2022-11-07T21:35:42.375Z,2.58
2022-11-07T21:38:09.030Z,2.83
2022-11-07T21:40:36.087Z,2.65
2022-11-07T21:43:02.602Z,2.75
2022-11-07T21:45:29.074Z,2.95
2022-11-07T21:47:55.580Z,2.42
2022-11-07T21:50:43.590Z,2.50
2022-11-07T21:53:08.910Z,2.60
2022-11-07T21:55:35.431Z,2.88
2022-11-07T21:58:02.279Z,2.80
2022-11-07T22:00:33.117Z,2.30
2022-11-07T22:03:02.811Z,2.70
2022-11-07T22:05:29.321Z,2.28
2022-11-07T22:07:55.779Z,2.53
2022-11-07T22:10:22.225Z,2.47
2022-11-07T22:12:50.679Z,3.28
2022-11-07T22:15:17.230Z,2.85
2022-11-07T22:17:43.687Z,2.50
2022-11-07T22:20:10.491Z,2.30
2022-11-07T22:22:36.971Z,1.73
2022-11-07T22:25:03.544Z,2.75
2022-11-07T22:27:30.876Z,2.72
2022-11-07T22:29:57.431Z,2.70
2022-11-07T22:32:24.144Z,3.20
2022-11-07T22:34:50.610Z,2.60
2022-11-07T22:37:17.075Z,2.72
2022-11-07T22:39:43.556Z,2.47
2022-11-07T22:42:10.021Z,2.58
2022-11-07T22:44:36.736Z,2.60
2022-11-07T22:47:03.300Z,2.80
2022-11-07T22:49:29.842Z,2.70
2022-11-07T22:51:56.403Z,2.60
2022-11-07T22:54:22.836Z,3.10
2022-11-07T22:56:49.291Z,3.10
2022-11-07T22:59:15.752Z,2.63
2022-11-07T23:01:43.082Z,3.03
2022-11-07T23:04:12.809Z,3.08
2022-11-07T23:06:39.347Z,2.90
2022-11-07T23:09:05.974Z,2.35
2022-11-07T23:11:46.423Z,2.60
2022-11-07T23:14:15.110Z,2.88
2022-11-07T23:16:45.869Z,2.67
2022-11-07T23:19:13.456Z,2.45
2022-11-07T23:21:39.933Z,2.95
2022-11-07T23:24:06.583Z,2.60
2022-11-07T23:26:35.972Z,2.63
2022-11-07T23:29:10.128Z,2.55
2022-11-07T23:31:37.876Z,2.60
2022-11-07T23:34:04.365Z,2.78
2022-11-07T23:36:30.896Z,2.70
2022-11-07T23:38:57.442Z,2.63
2022-11-07T23:41:23.898Z,2.95
2022-11-07T23:43:52.719Z,2.70
2022-11-07T23:46:37.974Z,2.90
2022-11-07T23:49:22.893Z,2.63
2022-11-07T23:51:49.498Z,2.70
2022-11-07T23:54:34.339Z,2.90
2022-11-07T23:57:00.814Z,2.90
2022-11-07T23:59:45.605Z,2.40
